Roseburg Regional, OR

10:50 AM PDT on October 31, 2014 (GMT -0700)
Mahlon Sweet | Change Station
CLOSE
Current Station
Airport
Location: Eugene,
Elevation: 374 ft
Nearby Weather Stations

Elev 374 ft 44.12 °N, 123.21 °W | Updated 56 minutes ago

Overcast
Overcast
53 °F
Feels Like 53 °F
N
5
Wind Variable Wind from South

Today
High -- | Low -- °F
--% Chance of Precip.
Yesterday
High -- | Low -- °F
Precip. -- in
7:47 AM 6:06 PM
First Quarter, 57% visible
Pressure 29.86 in
Visibility 10.0 miles
Clouds Few 1100 ft
Mostly Cloudy 2200 ft
Overcast 3800 ft
Dew Point 49 °F
Humidity 86%
Rainfall 0.44 in
Snow Depth Not available.
UV 0 out of 12
Pollen .30 out of 12
Air Quality Not available.
Flu Activity Not available.
METAR KEUG 311654Z 19004KT 10SM FEW011 BKN022 OVC038 12/09 A2986 RMK AO2 SLP111 T01170094

More Conditions Fewer Conditions

Pressure 29.86 in
Visibility 10.0 miles
Clouds Few 1100 ft
Mostly Cloudy 2200 ft
Overcast 3800 ft
Dew Point 49 °F
Humidity 86%
Rainfall 0.44 in
Snow Depth Not available.
UV 0 out of 12
Pollen .30 out of 12
Air Quality Not available.
Flu Activity Not available.
METAR KEUG 311654Z 19004KT 10SM FEW011 BKN022 OVC038 12/09 A2986 RMK AO2 SLP111 T01170094

More Conditions Fewer Conditions

10-Day Weather Forecast

Almanac

Astronomy

Oct. 31, 2014 Rise Set
Actual Time
Civil Twilight
Nautical Twilight
Astronomical Twilight
Moon
Length of Visible Light
Length of Day
Tomorrow will be .
, % of the Moon is Illuminated

Today's Extremes

State Highs State Lows

Community

WunderPhotos

Upload Photos

1,766,673 photos uploaded!

WunderBlogs® & News

Nearby

Air Quality

  Air Quality AQ Index Pollutant
Not available.

Snow Depth

Station Depth Elevation

Earthquake Activity

City Distance Mag. Time & Date
Minimum magnitude displayed is 2.5.

Coastal Water Temperatures

Place Temperature

Nearby Weather Stations